createdAt,value
2022-07-28T00:00:33.978Z,94.70
2022-07-28T00:03:01.388Z,94.30
2022-07-28T00:05:28.779Z,94.30
2022-07-28T00:07:56.596Z,94.70
2022-07-28T00:10:24.062Z,94.50
2022-07-28T00:12:51.122Z,94.90
2022-07-28T00:15:18.180Z,95.40
2022-07-28T00:17:45.211Z,95.60
2022-07-28T00:20:12.542Z,95.40
2022-07-28T00:22:44.324Z,95.60
2022-07-28T00:25:12.534Z,95.60
2022-07-28T00:27:39.765Z,95.70
2022-07-28T00:30:08.445Z,95.80
2022-07-28T00:32:35.678Z,95.70
2022-07-28T00:35:02.946Z,96.00
2022-07-28T00:37:29.949Z,96.00
2022-07-28T00:39:57.146Z,96.70
2022-07-28T00:42:24.440Z,96.20
2022-07-28T00:44:51.866Z,96.60
2022-07-28T00:47:20.235Z,96.10
2022-07-28T00:49:48.411Z,96.00
2022-07-28T00:52:17.584Z,95.80
2022-07-28T00:54:44.795Z,95.90
2022-07-28T00:57:11.941Z,96.10
2022-07-28T00:59:39.193Z,96.50
2022-07-28T01:02:06.546Z,96.80
2022-07-28T01:04:33.820Z,96.60
2022-07-28T01:07:06.709Z,96.90
2022-07-28T01:09:42.386Z,97.30
2022-07-28T01:12:28.295Z,97.40
2022-07-28T01:15:13.145Z,97.50
2022-07-28T01:18:05.475Z,97.50
2022-07-28T01:20:42.308Z,97.60
2022-07-28T01:23:12.372Z,97.80
2022-07-28T01:25:57.408Z,97.80
2022-07-28T01:28:39.838Z,97.80
2022-07-28T01:31:09.472Z,98.10
2022-07-28T01:33:44.527Z,98.20
2022-07-28T01:36:23.280Z,98.20
2022-07-28T01:38:51.307Z,98.10
2022-07-28T01:41:25.124Z,98.10
2022-07-28T01:43:58.966Z,98.10
2022-07-28T01:46:27.356Z,98.30
2022-07-28T01:48:56.696Z,98.40
2022-07-28T01:51:28.257Z,98.30
2022-07-28T01:53:58.569Z,98.20
2022-07-28T01:56:27.295Z,98.40
2022-07-28T01:58:56.034Z,98.20
2022-07-28T02:01:25.591Z,98.40
2022-07-28T02:03:56.603Z,98.30
2022-07-28T02:06:25.209Z,98.30
2022-07-28T02:08:54.949Z,98.30
2022-07-28T02:11:41.627Z,98.00
2022-07-28T02:14:16.935Z,98.00
2022-07-28T02:17:02.191Z,98.20
2022-07-28T02:19:31.010Z,98.10
2022-07-28T02:21:58.192Z,98.00
2022-07-28T02:24:27.099Z,98.20
2022-07-28T02:27:04.382Z,97.90
2022-07-28T02:29:52.987Z,98.10
2022-07-28T02:32:27.433Z,98.00
2022-07-28T02:35:01.026Z,98.10
2022-07-28T02:37:35.005Z,98.00
2022-07-28T02:40:04.753Z,98.00
2022-07-28T02:42:35.668Z,98.10
2022-07-28T02:45:07.150Z,98.10
2022-07-28T02:47:40.392Z,97.90
2022-07-28T02:50:09.304Z,98.00
2022-07-28T02:52:37.221Z,97.80
2022-07-28T02:55:05.135Z,98.00
2022-07-28T02:57:32.881Z,97.90
2022-07-28T03:00:00.241Z,98.10
2022-07-28T03:02:31.041Z,97.70
2022-07-28T03:04:59.828Z,98.10
2022-07-28T03:07:33.021Z,97.60
2022-07-28T03:10:00.828Z,97.80
2022-07-28T03:12:28.139Z,97.70
2022-07-28T03:14:55.581Z,97.90
2022-07-28T03:17:23.009Z,97.80
2022-07-28T03:19:50.566Z,97.80
2022-07-28T03:22:17.942Z,98.00
2022-07-28T03:24:51.559Z,98.00
2022-07-28T03:27:40.183Z,98.10
2022-07-28T03:30:25.452Z,98.00
2022-07-28T03:32:56.941Z,97.80
2022-07-28T03:35:25.450Z,97.80
2022-07-28T03:37:57.816Z,98.10
2022-07-28T03:40:27.499Z,97.80
2022-07-28T03:42:56.436Z,98.10
2022-07-28T03:45:24.997Z,98.00
2022-07-28T03:47:56.359Z,97.90
2022-07-28T03:50:31.462Z,97.80
2022-07-28T03:53:00.202Z,97.40
2022-07-28T03:55:27.707Z,97.30
2022-07-28T03:57:54.709Z,97.40
2022-07-28T04:00:22.206Z,95.80
2022-07-28T04:02:49.611Z,96.00
2022-07-28T04:05:18.495Z,95.70
2022-07-28T04:07:48.945Z,95.50
2022-07-28T04:10:17.949Z,95.00
2022-07-28T04:12:55.965Z,95.10
2022-07-28T04:15:24.493Z,95.20
2022-07-28T04:17:52.769Z,95.20
2022-07-28T04:20:20.958Z,95.00
2022-07-28T04:22:48.718Z,94.70
2022-07-28T04:25:18.606Z,93.80
2022-07-28T04:27:45.961Z,91.30
2022-07-28T04:30:19.465Z,92.10
2022-07-28T04:32:48.497Z,89.80
2022-07-28T04:35:17.709Z,90.40
2022-07-28T04:37:45.507Z,89.60
2022-07-28T04:40:13.596Z,90.30
2022-07-28T04:42:41.556Z,89.10
2022-07-28T04:45:11.717Z,89.10
2022-07-28T04:47:39.378Z,88.70
2022-07-28T04:50:08.423Z,87.80
2022-07-28T04:52:35.924Z,87.80
2022-07-28T04:55:03.604Z,85.60
2022-07-28T04:57:30.702Z,85.30
2022-07-28T04:59:58.849Z,84.20
2022-07-28T05:02:26.974Z,84.40
2022-07-28T05:04:54.463Z,85.60
2022-07-28T05:07:21.646Z,87.70
2022-07-28T05:09:48.653Z,88.10
2022-07-28T05:12:15.659Z,88.70
2022-07-28T05:14:42.990Z,89.10
2022-07-28T05:17:10.010Z,88.50
2022-07-28T05:19:37.394Z,88.30
2022-07-28T05:22:04.819Z,87.60
2022-07-28T05:24:32.281Z,87.90
2022-07-28T05:27:02.258Z,89.00
2022-07-28T05:29:41.856Z,87.70
2022-07-28T05:32:17.199Z,86.80
2022-07-28T05:34:45.830Z,87.10
2022-07-28T05:37:13.475Z,85.60
2022-07-28T05:39:40.941Z,85.10
2022-07-28T05:42:15.690Z,85.30
2022-07-28T05:44:43.123Z,84.10
2022-07-28T05:47:10.227Z,82.80
2022-07-28T05:49:37.385Z,82.30
2022-07-28T05:52:04.570Z,79.30
2022-07-28T05:54:31.692Z,79.60
2022-07-28T05:57:01.187Z,80.40
2022-07-28T05:59:28.350Z,80.30
2022-07-28T06:01:55.519Z,77.90
2022-07-28T06:04:26.117Z,77.60
2022-07-28T06:06:54.850Z,78.70
2022-07-28T06:09:21.846Z,77.50
2022-07-28T06:11:50.931Z,75.90
2022-07-28T06:14:19.727Z,74.30
2022-07-28T06:16:51.589Z,73.30
2022-07-28T06:19:19.631Z,71.80
2022-07-28T06:21:47.763Z,73.60
2022-07-28T06:24:15.498Z,74.00
2022-07-28T06:26:44.911Z,74.00
2022-07-28T06:29:12.800Z,74.00
2022-07-28T06:31:40.279Z,76.60
2022-07-28T06:34:07.464Z,77.00
2022-07-28T06:36:35.004Z,78.10
2022-07-28T06:39:02.957Z,78.40
2022-07-28T06:41:30.062Z,79.10
2022-07-28T06:43:57.170Z,79.20
2022-07-28T06:46:24.319Z,76.30
2022-07-28T06:48:53.159Z,74.00
2022-07-28T06:51:20.574Z,73.10
2022-07-28T06:53:48.996Z,71.80
2022-07-28T06:56:17.268Z,70.50
2022-07-28T06:58:46.891Z,69.70
2022-07-28T07:01:15.556Z,68.20
2022-07-28T07:03:43.474Z,68.10
2022-07-28T07:06:11.370Z,69.60
2022-07-28T07:08:39.104Z,71.20
2022-07-28T07:11:06.356Z,71.40
2022-07-28T07:13:33.666Z,71.20
2022-07-28T07:16:00.927Z,72.00
2022-07-28T07:18:28.114Z,72.70
2022-07-28T07:20:57.869Z,74.40
2022-07-28T07:23:25.139Z,73.60
2022-07-28T07:25:52.273Z,74.50
2022-07-28T07:28:19.493Z,73.80
2022-07-28T07:30:46.699Z,72.60
2022-07-28T07:33:14.404Z,74.10
2022-07-28T07:35:41.704Z,74.60
2022-07-28T07:38:09.552Z,73.80
2022-07-28T07:40:36.785Z,73.30
2022-07-28T07:43:05.078Z,73.10
2022-07-28T07:45:34.497Z,74.00
2022-07-28T07:48:03.844Z,72.10
2022-07-28T07:50:31.046Z,72.70
2022-07-28T07:52:58.605Z,71.10
2022-07-28T07:55:25.755Z,71.00
2022-07-28T07:57:53.389Z,71.30
2022-07-28T08:00:28.790Z,71.50
2022-07-28T08:02:58.005Z,71.80
2022-07-28T08:05:35.723Z,71.10
2022-07-28T08:08:07.407Z,71.60
2022-07-28T08:10:36.441Z,70.30
2022-07-28T08:13:04.890Z,70.60
2022-07-28T08:15:32.396Z,72.30
2022-07-28T08:18:00.270Z,74.80
2022-07-28T08:20:30.135Z,76.00
2022-07-28T08:22:59.849Z,76.30
2022-07-28T08:25:28.170Z,77.10
2022-07-28T08:27:55.603Z,78.60
2022-07-28T08:30:27.521Z,79.10
2022-07-28T08:32:59.999Z,80.20
2022-07-28T08:35:35.814Z,80.80
2022-07-28T08:38:04.867Z,81.60
2022-07-28T08:40:35.290Z,81.10
2022-07-28T08:43:30.162Z,80.30
2022-07-28T08:45:59.238Z,80.30
2022-07-28T08:48:30.799Z,79.00
2022-07-28T08:51:03.034Z,78.50
2022-07-28T08:53:31.972Z,78.30
2022-07-28T08:56:03.607Z,77.70
2022-07-28T08:58:33.217Z,76.50
2022-07-28T09:01:01.399Z,74.20
2022-07-28T09:03:31.921Z,74.50
2022-07-28T09:05:59.222Z,74.50
2022-07-28T09:08:26.673Z,71.00
2022-07-28T09:10:55.069Z,72.80
2022-07-28T09:13:22.637Z,71.80
2022-07-28T09:15:49.740Z,71.60
2022-07-28T09:18:17.838Z,70.70
2022-07-28T09:20:45.765Z,68.40
2022-07-28T09:23:42.678Z,69.20
2022-07-28T09:26:12.869Z,66.50
2022-07-28T09:28:51.430Z,63.00
2022-07-28T09:31:19.560Z,62.90
2022-07-28T09:34:01.132Z,60.00
2022-07-28T09:36:40.038Z,61.00
2022-07-28T09:39:08.273Z,60.30
2022-07-28T09:41:57.408Z,59.10
2022-07-28T09:44:27.086Z,61.30
2022-07-28T09:46:57.945Z,60.30
2022-07-28T09:49:42.983Z,59.20
2022-07-28T09:52:10.707Z,59.50
2022-07-28T09:54:40.973Z,59.00
2022-07-28T09:57:11.908Z,59.50
2022-07-28T09:59:50.539Z,59.80
2022-07-28T10:02:27.655Z,58.50
2022-07-28T10:04:55.157Z,55.00
2022-07-28T10:07:22.709Z,53.40
2022-07-28T10:10:22.246Z,53.50
2022-07-28T10:12:49.780Z,53.70
2022-07-28T10:15:50.581Z,55.50
2022-07-28T10:18:18.336Z,57.10
2022-07-28T10:20:45.977Z,54.90
2022-07-28T10:23:13.927Z,55.80
2022-07-28T10:25:43.510Z,55.00
2022-07-28T10:28:12.000Z,52.00
2022-07-28T10:30:41.347Z,51.60
2022-07-28T10:33:16.148Z,47.70
2022-07-28T10:35:54.658Z,47.80
2022-07-28T10:38:26.291Z,48.50
2022-07-28T10:40:56.647Z,48.90
2022-07-28T10:43:25.745Z,49.10
2022-07-28T10:46:14.158Z,46.60
2022-07-28T10:48:43.443Z,47.30
2022-07-28T10:51:11.829Z,46.10
2022-07-28T10:54:07.125Z,44.50
2022-07-28T10:56:34.134Z,44.50
2022-07-28T10:59:13.079Z,43.50
2022-07-28T11:01:50.104Z,46.20
2022-07-28T11:04:48.094Z,47.20
2022-07-28T11:07:20.918Z,45.80
2022-07-28T11:09:48.251Z,45.90
2022-07-28T11:12:16.767Z,45.50
2022-07-28T11:14:45.165Z,41.90
2022-07-28T11:17:23.960Z,41.90
2022-07-28T11:22:43.938Z,44.70
2022-07-28T11:25:19.209Z,42.70
2022-07-28T11:27:52.426Z,41.90
2022-07-28T11:30:21.433Z,44.90
2022-07-28T11:32:51.710Z,45.70
2022-07-28T11:35:20.748Z,43.20
2022-07-28T11:38:03.191Z,44.10
2022-07-28T11:40:31.150Z,42.50
2022-07-28T11:43:37.815Z,44.80
2022-07-28T11:46:09.554Z,43.20
2022-07-28T11:48:40.049Z,42.00
2022-07-28T11:51:13.030Z,41.40
2022-07-28T11:53:52.681Z,42.70
2022-07-28T11:56:37.667Z,39.70
2022-07-28T11:59:06.493Z,40.90
2022-07-28T12:01:38.689Z,44.20
2022-07-28T12:04:12.182Z,42.80
2022-07-28T12:06:43.182Z,43.50
2022-07-28T12:09:11.428Z,45.00
2022-07-28T12:11:41.295Z,44.50
2022-07-28T12:14:09.339Z,42.40
2022-07-28T12:16:40.521Z,43.40
2022-07-28T12:19:10.040Z,43.70
2022-07-28T12:21:55.108Z,41.30
2022-07-28T12:24:44.732Z,39.20
2022-07-28T12:27:15.161Z,39.80
2022-07-28T12:30:04.136Z,39.10
2022-07-28T12:32:35.735Z,37.30
2022-07-28T12:35:03.847Z,39.00
2022-07-28T12:37:31.548Z,40.30
2022-07-28T12:40:03.273Z,40.20
2022-07-28T12:42:33.617Z,39.10
2022-07-28T12:45:04.937Z,38.60
2022-07-28T12:47:33.094Z,40.20
2022-07-28T12:50:16.385Z,39.40
2022-07-28T12:52:46.671Z,39.60
2022-07-28T12:55:24.790Z,41.30
2022-07-28T12:57:53.019Z,41.30
2022-07-28T13:00:26.710Z,39.00
2022-07-28T13:02:56.567Z,39.80
2022-07-28T13:05:59.565Z,38.80
2022-07-28T13:08:29.566Z,38.90
2022-07-28T13:10:59.223Z,38.90
2022-07-28T13:13:28.816Z,38.30
2022-07-28T13:16:15.481Z,37.60
2022-07-28T13:18:48.569Z,39.00
2022-07-28T13:21:17.083Z,38.40
2022-07-28T13:23:45.105Z,36.70
2022-07-28T13:26:12.736Z,36.30
2022-07-28T13:28:39.792Z,36.60
2022-07-28T13:31:07.151Z,37.70
2022-07-28T13:33:34.327Z,37.70
2022-07-28T13:36:01.906Z,40.50
2022-07-28T13:38:29.637Z,38.60
2022-07-28T13:40:57.003Z,40.20
2022-07-28T13:43:24.289Z,39.10
2022-07-28T13:46:03.884Z,39.40
2022-07-28T13:48:33.236Z,38.70
2022-07-28T13:51:01.372Z,40.90
2022-07-28T13:53:35.164Z,40.90
2022-07-28T13:56:02.249Z,39.00
2022-07-28T13:58:29.869Z,37.80
2022-07-28T14:00:57.544Z,38.20
2022-07-28T14:03:24.941Z,38.30
2022-07-28T14:05:52.075Z,36.90
2022-07-28T14:08:19.870Z,37.50
2022-07-28T14:10:48.520Z,37.10
2022-07-28T14:13:15.708Z,37.60
2022-07-28T14:15:42.749Z,37.40
2022-07-28T14:18:09.773Z,37.10
2022-07-28T14:20:36.815Z,37.60
2022-07-28T14:23:04.282Z,37.80
2022-07-28T14:25:48.342Z,37.50
2022-07-28T14:28:16.794Z,38.00
2022-07-28T14:30:43.933Z,39.60
2022-07-28T14:33:10.975Z,40.20
2022-07-28T14:35:38.291Z,41.80
2022-07-28T14:38:51.162Z,42.90
2022-07-28T14:40:56.182Z,42.70
2022-07-28T14:43:23.205Z,42.20
2022-07-28T14:45:50.948Z,41.00
2022-07-28T14:48:37.415Z,40.50
2022-07-28T14:51:04.859Z,42.10
2022-07-28T14:53:32.370Z,40.80
2022-07-28T14:56:02.728Z,38.20
2022-07-28T14:58:29.758Z,38.60
2022-07-28T15:00:56.896Z,38.30
2022-07-28T15:03:24.162Z,38.30
2022-07-28T15:05:52.145Z,38.20
2022-07-28T15:08:19.254Z,40.50
2022-07-28T15:10:46.343Z,38.90
2022-07-28T15:13:16.169Z,42.00
2022-07-28T15:15:44.864Z,42.40
2022-07-28T15:18:11.998Z,40.30
2022-07-28T15:20:43.464Z,41.30
2022-07-28T15:23:11.818Z,42.20
2022-07-28T15:25:39.148Z,42.60
2022-07-28T15:28:06.406Z,44.10
2022-07-28T15:30:33.564Z,43.60
2022-07-28T15:33:01.892Z,44.50
2022-07-28T15:35:58.092Z,42.10
2022-07-28T15:38:19.568Z,42.50
2022-07-28T15:40:49.258Z,42.90
2022-07-28T15:46:42.234Z,46.10
2022-07-28T15:49:11.512Z,46.60
2022-07-28T15:51:42.151Z,45.60
2022-07-28T15:54:09.892Z,46.30
2022-07-28T15:56:37.392Z,46.30
2022-07-28T15:59:06.368Z,44.90
2022-07-28T16:01:34.910Z,45.30
2022-07-28T16:04:02.484Z,45.00
2022-07-28T16:06:48.776Z,44.70
2022-07-28T16:09:16.120Z,47.20
2022-07-28T16:11:43.562Z,48.10
2022-07-28T16:14:10.983Z,49.70
2022-07-28T16:16:38.960Z,51.80
2022-07-28T16:19:20.172Z,52.90
2022-07-28T16:21:55.827Z,53.70
2022-07-28T16:24:22.899Z,53.50
2022-07-28T16:26:49.932Z,53.90
2022-07-28T16:29:16.972Z,55.10
2022-07-28T16:31:45.501Z,54.00
2022-07-28T16:34:13.062Z,55.10
2022-07-28T16:36:40.293Z,55.90
2022-07-28T16:39:09.539Z,55.50
2022-07-28T16:41:46.861Z,56.70
2022-07-28T16:44:16.142Z,58.20
2022-07-28T16:46:43.556Z,58.00
2022-07-28T16:49:10.830Z,58.60
2022-07-28T16:51:37.916Z,58.40
2022-07-28T16:54:05.035Z,58.30
2022-07-28T16:56:32.040Z,59.10
2022-07-28T16:59:00.574Z,59.30
2022-07-28T17:01:27.837Z,58.60
2022-07-28T17:03:54.910Z,58.80
2022-07-28T17:06:21.995Z,57.40
2022-07-28T17:08:49.069Z,58.30
2022-07-28T17:11:16.379Z,57.30
2022-07-28T17:13:45.344Z,57.70
2022-07-28T17:16:13.506Z,56.80
2022-07-28T17:18:40.739Z,57.80
2022-07-28T17:21:07.819Z,57.50
2022-07-28T17:23:36.428Z,58.30
2022-07-28T17:28:54.191Z,57.40
2022-07-28T17:31:21.736Z,57.40
2022-07-28T17:33:48.839Z,59.30
2022-07-28T17:36:16.093Z,59.00
2022-07-28T17:38:43.490Z,59.10
2022-07-28T17:41:10.823Z,60.30
2022-07-28T17:43:42.269Z,60.80
2022-07-28T17:46:12.735Z,60.10
2022-07-28T17:48:40.098Z,59.80
2022-07-28T17:51:07.290Z,59.60
2022-07-28T17:53:38.992Z,59.80
2022-07-28T17:56:07.003Z,60.00
2022-07-28T17:58:36.197Z,60.30
2022-07-28T18:01:12.138Z,61.10
2022-07-28T18:03:57.770Z,60.30
2022-07-28T18:06:29.514Z,59.70
2022-07-28T18:08:57.562Z,60.70
2022-07-28T18:11:30.253Z,60.80
2022-07-28T18:14:03.808Z,59.70
2022-07-28T18:16:45.624Z,61.10
2022-07-28T18:19:12.606Z,60.40
2022-07-28T18:21:43.091Z,59.70
2022-07-28T18:24:10.341Z,59.30
2022-07-28T18:26:37.618Z,59.50
2022-07-28T18:29:04.708Z,60.00
2022-07-28T18:31:32.529Z,60.20
2022-07-28T18:33:59.680Z,61.00
2022-07-28T18:36:27.330Z,62.90
2022-07-28T18:38:54.405Z,64.10
2022-07-28T18:41:21.555Z,63.50
2022-07-28T18:43:48.699Z,63.80
2022-07-28T18:46:16.035Z,65.20
2022-07-28T18:48:43.212Z,65.20
2022-07-28T18:51:10.308Z,66.00
2022-07-28T18:53:37.422Z,65.20
2022-07-28T18:56:04.669Z,66.30
2022-07-28T18:58:31.713Z,65.80
2022-07-28T19:00:58.695Z,67.00
2022-07-28T19:03:25.791Z,67.40
2022-07-28T19:05:54.418Z,66.90
2022-07-28T19:08:21.451Z,66.40
2022-07-28T19:10:48.471Z,67.00
2022-07-28T19:13:16.010Z,66.90
2022-07-28T19:15:43.186Z,66.90
2022-07-28T19:20:52.110Z,66.80
2022-07-28T19:23:19.935Z,65.40
2022-07-28T19:25:47.063Z,66.30
2022-07-28T19:28:14.208Z,64.20
2022-07-28T19:30:48.107Z,64.20
2022-07-28T19:33:19.350Z,66.00
2022-07-28T19:35:46.729Z,65.70
2022-07-28T19:38:13.994Z,67.30
2022-07-28T19:40:42.440Z,67.60
2022-07-28T19:43:12.734Z,68.70
2022-07-28T19:45:39.863Z,68.70
2022-07-28T19:48:07.667Z,68.40
2022-07-28T19:50:36.464Z,68.20
2022-07-28T19:53:04.014Z,68.70
2022-07-28T19:55:36.207Z,68.30
2022-07-28T19:58:05.453Z,68.20
2022-07-28T20:00:32.739Z,68.10
2022-07-28T20:03:00.930Z,66.50
2022-07-28T20:05:30.548Z,67.30
2022-07-28T20:07:57.673Z,67.50
2022-07-28T20:10:25.566Z,68.60
2022-07-28T20:12:52.959Z,68.10
2022-07-28T20:15:20.077Z,68.00
2022-07-28T20:17:47.268Z,68.20
2022-07-28T20:20:15.668Z,69.00
2022-07-28T20:22:42.997Z,68.90
2022-07-28T20:25:11.617Z,70.30
2022-07-28T20:27:44.548Z,69.50
2022-07-28T20:30:13.406Z,70.40
2022-07-28T20:32:42.366Z,70.80
2022-07-28T20:35:10.612Z,71.20
2022-07-28T20:37:38.372Z,70.10
2022-07-28T20:40:10.019Z,70.60
2022-07-28T20:42:37.317Z,70.50
2022-07-28T20:45:05.583Z,71.70
2022-07-28T20:47:33.516Z,72.10
2022-07-28T20:50:01.133Z,70.60
2022-07-28T20:52:28.304Z,69.50
2022-07-28T20:54:55.504Z,69.00
2022-07-28T20:57:23.382Z,69.40
2022-07-28T20:59:52.296Z,71.50
2022-07-28T21:02:24.489Z,71.80
2022-07-28T21:04:52.307Z,72.50
2022-07-28T21:08:00.603Z,70.90
2022-07-28T21:10:08.071Z,73.00
2022-07-28T21:12:37.254Z,72.90
2022-07-28T21:15:06.558Z,73.10
2022-07-28T21:17:33.902Z,73.00
2022-07-28T21:20:00.963Z,73.20
2022-07-28T21:22:28.091Z,73.40
2022-07-28T21:24:55.900Z,73.90
2022-07-28T21:27:23.913Z,74.10
2022-07-28T21:32:32.119Z,74.10
2022-07-28T21:34:59.390Z,74.00
2022-07-28T21:37:26.870Z,73.80
2022-07-28T21:39:53.964Z,74.10
2022-07-28T21:42:21.042Z,73.70
2022-07-28T21:44:48.127Z,74.00
2022-07-28T21:47:15.150Z,73.70
2022-07-28T21:49:42.264Z,74.40
2022-07-28T21:52:09.455Z,74.20
2022-07-28T21:54:36.491Z,75.30
2022-07-28T21:57:04.041Z,76.10
2022-07-28T21:59:49.718Z,76.00
2022-07-28T22:02:16.981Z,76.70
2022-07-28T22:04:44.088Z,76.80
2022-07-28T22:07:11.400Z,77.20
2022-07-28T22:09:38.936Z,77.10
2022-07-28T22:12:06.888Z,77.20
2022-07-28T22:14:34.082Z,77.50
2022-07-28T22:17:01.735Z,78.00
2022-07-28T22:19:30.185Z,77.90
2022-07-28T22:21:59.098Z,78.70
2022-07-28T22:24:26.386Z,78.50
2022-07-28T22:26:54.279Z,78.80
2022-07-28T22:29:21.702Z,79.00
2022-07-28T22:31:48.846Z,79.30
2022-07-28T22:34:16.484Z,79.30
2022-07-28T22:36:43.954Z,79.40
2022-07-28T22:39:11.315Z,79.70
2022-07-28T22:41:38.474Z,79.90
2022-07-28T22:44:06.463Z,79.70
2022-07-28T22:46:34.562Z,80.30
2022-07-28T22:49:01.777Z,80.40
2022-07-28T22:51:29.002Z,80.90
2022-07-28T22:53:57.661Z,80.60
2022-07-28T22:56:25.144Z,81.10
2022-07-28T22:58:52.575Z,81.20
2022-07-28T23:01:19.775Z,80.80
2022-07-28T23:03:47.769Z,81.60
2022-07-28T23:06:15.039Z,81.90
2022-07-28T23:08:42.135Z,82.30
2022-07-28T23:11:09.372Z,82.80
2022-07-28T23:13:36.470Z,82.50
2022-07-28T23:16:03.834Z,82.50
2022-07-28T23:18:30.992Z,83.00
2022-07-28T23:20:58.065Z,83.10
2022-07-28T23:23:25.316Z,83.40
2022-07-28T23:25:52.519Z,83.50
2022-07-28T23:28:19.861Z,83.10
2022-07-28T23:30:48.375Z,83.70
2022-07-28T23:33:55.140Z,83.70
2022-07-28T23:36:07.375Z,84.30
2022-07-28T23:38:42.024Z,84.30
2022-07-28T23:41:13.939Z,84.30
2022-07-28T23:43:41.437Z,84.50
2022-07-28T23:46:09.180Z,84.50
2022-07-28T23:48:36.372Z,84.60
2022-07-28T23:51:03.862Z,85.70
2022-07-28T23:53:31.299Z,86.10
2022-07-28T23:55:58.950Z,85.90
2022-07-28T23:58:26.134Z,87.00
